createdAt,value
2023-04-08T00:02:58.962Z,88.70
2023-04-08T00:08:03.259Z,87.30
2023-04-08T00:13:05.368Z,86.80
2023-04-08T00:18:08.580Z,86.20
2023-04-08T00:23:10.485Z,86.20
2023-04-08T00:28:12.523Z,85.60
2023-04-08T00:33:14.359Z,86.10
2023-04-08T00:38:16.258Z,86.60
2023-04-08T00:43:20.845Z,86.50
2023-04-08T00:48:23.057Z,86.20
2023-04-08T00:53:25.754Z,86.60
2023-04-08T00:58:30.056Z,87.00
2023-04-08T01:03:39.683Z,87.90
2023-04-08T01:08:43.174Z,87.70
2023-04-08T01:13:46.248Z,89.50
2023-04-08T01:18:50.157Z,88.80
2023-04-08T01:24:02.243Z,87.80
2023-04-08T01:29:06.226Z,88.70
2023-04-08T01:34:08.279Z,90.80
2023-04-08T01:39:11.344Z,89.40
2023-04-08T01:44:15.609Z,89.30
2023-04-08T01:49:17.858Z,89.80
2023-04-08T01:54:19.691Z,90.70
2023-04-08T01:59:23.817Z,91.60
2023-04-08T02:04:25.654Z,91.80
2023-04-08T02:09:27.556Z,93.10
2023-04-08T02:14:29.782Z,93.30
2023-04-08T02:19:40.465Z,93.80
2023-04-08T02:24:42.948Z,94.50
2023-04-08T02:29:47.200Z,95.20
2023-04-08T02:34:50.398Z,95.10
2023-04-08T02:39:52.159Z,95.00
2023-04-08T02:44:53.954Z,95.20
2023-04-08T02:49:55.969Z,95.70
2023-04-08T02:54:57.691Z,95.80
2023-04-08T02:59:59.675Z,96.20
2023-04-08T03:05:01.648Z,96.00
2023-04-08T03:10:04.282Z,96.70
2023-04-08T03:15:06.585Z,97.30
2023-04-08T03:20:08.865Z,97.60
2023-04-08T03:25:11.850Z,98.20
2023-04-08T03:30:13.641Z,98.50
2023-04-08T03:35:15.785Z,98.70
2023-04-08T03:40:17.615Z,99.60
2023-04-08T03:45:19.501Z,99.40
2023-04-08T03:50:21.280Z,99.50
2023-04-08T03:55:23.451Z,99.50
2023-04-08T04:00:25.553Z,99.30
2023-04-08T04:05:27.267Z,99.00
2023-04-08T04:10:28.979Z,98.80
2023-04-08T04:15:30.860Z,98.90
2023-04-08T04:20:32.996Z,98.90
2023-04-08T04:25:35.109Z,98.20
2023-04-08T04:30:38.534Z,97.60
2023-04-08T04:35:41.050Z,97.20
2023-04-08T04:40:44.260Z,97.80
2023-04-08T04:45:46.434Z,97.10
2023-04-08T04:50:58.676Z,96.80
2023-04-08T04:56:01.891Z,96.50
2023-04-08T05:01:04.131Z,96.60
2023-04-08T05:06:06.130Z,96.60
2023-04-08T05:11:11.435Z,96.40
2023-04-08T05:16:13.452Z,96.00
2023-04-08T05:21:15.232Z,96.30
2023-04-08T05:26:18.261Z,95.70
2023-04-08T05:31:21.903Z,95.10
2023-04-08T05:36:23.812Z,95.30
2023-04-08T05:41:25.579Z,91.70
2023-04-08T05:46:27.455Z,83.80
2023-04-08T05:51:29.396Z,66.20
2023-04-08T05:56:32.329Z,59.60
2023-04-08T06:01:34.297Z,58.80
2023-04-08T06:06:39.476Z,60.30
2023-04-08T06:11:41.272Z,58.70
2023-04-08T06:16:43.256Z,57.70
2023-04-08T06:21:45.314Z,55.10
2023-04-08T06:26:47.969Z,53.30
2023-04-08T06:31:50.668Z,51.80
2023-04-08T06:36:52.655Z,48.40
2023-04-08T06:41:54.795Z,43.50
2023-04-08T06:46:56.609Z,37.20
2023-04-08T06:51:58.663Z,34.50
2023-04-08T06:57:00.513Z,32.70
2023-04-08T07:02:02.715Z,31.40
2023-04-08T07:07:04.560Z,30.60
2023-04-08T07:12:06.308Z,29.40
2023-04-08T07:17:08.299Z,28.80
2023-04-08T07:22:10.387Z,27.00
2023-04-08T07:27:12.115Z,26.50
2023-04-08T07:32:13.987Z,27.60
2023-04-08T07:37:16.106Z,26.80
2023-04-08T07:42:18.707Z,25.70
2023-04-08T07:47:20.475Z,24.80
2023-04-08T07:52:22.325Z,25.20
2023-04-08T07:57:24.025Z,24.80
2023-04-08T08:02:26.175Z,26.60
2023-04-08T08:07:28.186Z,29.20
2023-04-08T08:12:30.377Z,29.20
2023-04-08T08:17:33.728Z,29.70
2023-04-08T08:22:39.809Z,30.90
2023-04-08T08:27:49.152Z,36.70
2023-04-08T08:32:52.237Z,39.60
2023-04-08T08:37:54.158Z,41.00
2023-04-08T08:42:57.460Z,37.80
2023-04-08T08:47:59.224Z,33.60
2023-04-08T08:53:01.074Z,34.30
2023-04-08T08:58:03.505Z,29.00
2023-04-08T09:03:19.320Z,29.90
2023-04-08T09:08:37.739Z,35.20
2023-04-08T09:13:39.697Z,38.60
2023-04-08T09:18:44.422Z,41.30
2023-04-08T09:23:51.033Z,39.20
2023-04-08T09:29:24.447Z,32.30
2023-04-08T09:34:29.794Z,30.60
2023-04-08T09:39:32.342Z,33.30
2023-04-08T09:44:37.429Z,28.70
2023-04-08T09:49:50.038Z,29.20
2023-04-08T09:55:13.126Z,26.80
2023-04-08T10:00:16.657Z,28.10
2023-04-08T10:05:19.515Z,28.40
2023-04-08T10:10:21.591Z,27.90
2023-04-08T10:15:31.330Z,27.40
2023-04-08T10:20:36.241Z,34.40
2023-04-08T10:25:40.837Z,38.60
2023-04-08T10:30:43.484Z,42.40
2023-04-08T10:35:53.474Z,43.20
2023-04-08T10:40:55.707Z,43.60
2023-04-08T10:45:57.469Z,45.00
2023-04-08T10:51:01.048Z,44.90
2023-04-08T10:56:08.123Z,45.50
2023-04-08T11:01:10.122Z,44.70
2023-04-08T11:06:12.115Z,45.50
2023-04-08T11:11:14.833Z,45.50
2023-04-08T11:16:18.595Z,45.70
2023-04-08T11:21:22.281Z,46.80
2023-04-08T11:26:25.707Z,46.30
2023-04-08T11:31:27.896Z,46.80
2023-04-08T11:36:30.452Z,46.90
2023-04-08T11:41:39.629Z,47.60
2023-04-08T11:46:42.400Z,47.40
2023-04-08T11:51:59.098Z,48.60
2023-04-08T11:57:03.171Z,48.50
2023-04-08T12:02:05.265Z,48.50
2023-04-08T12:07:07.424Z,48.80
2023-04-08T12:12:09.173Z,49.50
2023-04-08T12:17:10.854Z,48.10
2023-04-08T12:22:12.749Z,48.70
2023-04-08T12:27:14.492Z,48.10
2023-04-08T12:32:17.054Z,48.60
2023-04-08T12:37:19.104Z,47.60
2023-04-08T12:42:20.866Z,47.50
2023-04-08T12:47:24.906Z,47.60
2023-04-08T12:52:27.854Z,47.70
2023-04-08T12:57:29.715Z,48.40
2023-04-08T13:02:31.698Z,48.80
2023-04-08T13:07:33.633Z,48.60
2023-04-08T13:12:35.680Z,48.40
2023-04-08T13:17:37.548Z,49.00
2023-04-08T13:22:41.333Z,49.20
2023-04-08T13:27:44.733Z,50.50
2023-04-08T13:32:48.491Z,49.80
2023-04-08T13:37:53.408Z,50.00
2023-04-08T13:42:55.200Z,50.10
2023-04-08T13:47:57.047Z,50.90
2023-04-08T13:53:00.009Z,51.10
2023-04-08T13:58:03.534Z,50.60
2023-04-08T14:03:08.410Z,51.50
2023-04-08T14:08:11.278Z,50.90
2023-04-08T14:13:12.992Z,50.40
2023-04-08T14:18:17.423Z,49.40
2023-04-08T14:23:19.296Z,48.50
2023-04-08T14:28:21.386Z,48.00
2023-04-08T14:33:23.077Z,47.90
2023-04-08T14:38:24.925Z,47.90
2023-04-08T14:43:26.805Z,47.50
2023-04-08T14:48:30.722Z,47.60
2023-04-08T14:53:33.468Z,48.30
2023-04-08T14:58:35.358Z,48.00
2023-04-08T15:03:37.098Z,48.20
2023-04-08T15:08:39.071Z,48.50
2023-04-08T15:13:41.061Z,48.30
2023-04-08T15:18:42.982Z,48.70
2023-04-08T15:23:44.899Z,48.20
2023-04-08T15:28:46.744Z,49.30
2023-04-08T15:33:48.880Z,48.20
2023-04-08T15:38:51.608Z,49.30
2023-04-08T15:43:54.294Z,49.30
2023-04-08T15:48:56.102Z,50.00
2023-04-08T15:53:57.876Z,50.30
2023-04-08T15:58:59.609Z,49.90
2023-04-08T16:04:01.990Z,50.40
2023-04-08T16:09:04.242Z,50.90
2023-04-08T16:14:06.430Z,51.60
2023-04-08T16:19:08.261Z,51.00
2023-04-08T16:24:09.960Z,52.30
2023-04-08T16:29:11.657Z,52.00
2023-04-08T16:34:13.477Z,53.00
2023-04-08T16:39:15.512Z,53.50
2023-04-08T16:44:17.318Z,54.00
2023-04-08T16:49:19.304Z,54.40
2023-04-08T16:54:21.238Z,54.90
2023-04-08T16:59:23.016Z,54.60
2023-04-08T17:04:24.759Z,55.10
2023-04-08T17:09:26.533Z,56.00
2023-04-08T17:14:28.352Z,56.70
2023-04-08T17:19:30.072Z,57.80
2023-04-08T17:24:31.864Z,58.90
2023-04-08T17:29:33.901Z,59.50
2023-04-08T17:34:35.955Z,59.90
2023-04-08T17:39:40.814Z,61.40
2023-04-08T17:44:42.860Z,60.90
2023-04-08T17:49:44.611Z,60.50
2023-04-08T17:54:46.327Z,61.50
2023-04-08T17:59:48.131Z,61.30
2023-04-08T18:04:50.589Z,63.40
2023-04-08T18:09:53.058Z,61.70
2023-04-08T18:14:54.852Z,61.80
2023-04-08T18:19:58.573Z,60.40
2023-04-08T18:25:00.286Z,59.50
2023-04-08T18:30:02.335Z,59.50
2023-04-08T18:35:04.633Z,59.90
2023-04-08T18:40:07.925Z,58.80
2023-04-08T18:45:10.028Z,59.00
2023-04-08T18:50:11.853Z,59.00
2023-04-08T18:55:13.636Z,58.80
2023-04-08T19:00:15.566Z,57.90
2023-04-08T19:05:17.877Z,58.10
2023-04-08T19:10:21.706Z,58.60
2023-04-08T19:15:23.462Z,57.90
2023-04-08T19:20:25.260Z,58.20
2023-04-08T19:25:27.085Z,58.80
2023-04-08T19:30:28.973Z,58.90
2023-04-08T19:35:31.496Z,58.60
2023-04-08T19:40:33.211Z,60.00
2023-04-08T19:45:35.063Z,59.50
2023-04-08T19:50:40.071Z,60.00
2023-04-08T19:55:42.555Z,59.70
2023-04-08T20:00:44.527Z,59.90
2023-04-08T20:05:46.858Z,60.10
2023-04-08T20:10:49.648Z,60.50
2023-04-08T20:15:52.583Z,60.00
2023-04-08T20:20:54.763Z,61.40
2023-04-08T20:25:56.747Z,60.60
2023-04-08T20:30:58.564Z,62.50
2023-04-08T20:36:00.342Z,62.90
2023-04-08T20:41:02.262Z,64.40
2023-04-08T20:46:04.098Z,65.40
2023-04-08T20:51:06.133Z,67.40
2023-04-08T20:56:07.862Z,67.50
2023-04-08T21:01:09.986Z,68.90
2023-04-08T21:06:21.798Z,69.20
2023-04-08T21:11:23.932Z,69.70
2023-04-08T21:16:25.832Z,70.70
2023-04-08T21:21:28.484Z,73.10
2023-04-08T21:26:30.376Z,73.80
2023-04-08T21:31:32.638Z,74.10
2023-04-08T21:36:34.426Z,75.30
2023-04-08T21:41:36.177Z,77.00
2023-04-08T21:46:37.906Z,76.90
2023-04-08T21:51:40.873Z,77.90
2023-04-08T21:56:43.474Z,78.50
2023-04-08T22:01:45.410Z,80.60
2023-04-08T22:06:49.469Z,81.80
2023-04-08T22:11:51.868Z,83.00
2023-04-08T22:16:53.739Z,84.70
2023-04-08T22:21:55.535Z,85.00
2023-04-08T22:26:57.578Z,86.10
2023-04-08T22:31:59.499Z,86.50
2023-04-08T22:37:01.374Z,87.50
2023-04-08T22:42:03.320Z,88.30
2023-04-08T22:47:05.023Z,89.80
2023-04-08T22:52:06.766Z,90.00
2023-04-08T22:57:08.516Z,90.50
2023-04-08T23:02:10.474Z,90.80
2023-04-08T23:07:12.308Z,91.20
2023-04-08T23:12:14.252Z,91.80
2023-04-08T23:17:16.191Z,92.00
2023-04-08T23:22:17.961Z,92.40
2023-04-08T23:27:19.737Z,92.30
2023-04-08T23:32:21.541Z,92.90
2023-04-08T23:37:25.009Z,93.60
2023-04-08T23:42:27.305Z,94.00
2023-04-08T23:47:31.155Z,95.00
2023-04-08T23:52:33.076Z,95.90
2023-04-08T23:57:34.830Z,96.10
